Aérodrome :
LOGIN :

S'inscrire | Disclaimer

   EN    FR    IT 

 










Légende :    VFR   VFR Marginal   IFR   IFR Intensif   IFR Très Intensif
Visi : 
Plafond : 
>= 8 km
>= 3000ft
5 à 8 km
1000 à 3000 ft
1500m à 5 km
500 à 1000 ft
800 à 1500m
200 à 500 ft
< 800m
< 200 ft
Symboles :   Orages  Brouillard  Fortes neiges  Fortes précipitations  Vent > 20 kt
SIGMETs :   Divers  Orages  Givrage  Turbulence  Onde Orograph.  Cendres Volcan.






- Altitude de l'aérodrome : 1043 ft
- Code IATA : SLD


LZSL - Sliac

DERNIER METAR :
  • 200700Z 05001KT 7000 SCT053 M05/M06 Q1041

METARs EXPIRÉS :
  • 200630Z 00000KT 8000 FEW054 M06/M07 Q1041
  • 200600Z 01001KT 4000 BR FEW062 M06/M07 Q1040
  • 200530Z 00000KT 5000 BR FEW062 M05/M06 Q1040
  • 200500Z 33001KT 5000 BR FEW062 M05/M07 Q1040
  • 200430Z 00000KT 4500 BR FEW062 M04/M06 Q1039
  • 200400Z VRB01KT 5000 BR SCT062 M04/M05 Q1039

TAF TAF LZSL
Valide du 20 à 06h jusqu'au 20 à 15h UTC


200500Z 2006/2015 VRB02KT 6000 FEW060
TEMPO 2006/2008 4000 BR FEW005 SCT060
BECMG 2008/2010 CAVOK



MET'MAP, la Météo Aéronautique d'un coup d'oeil ! - Copyright ORBIFLY Décembre 2007 - Disclaimer

ORBIFLY MET'MAP TEAM :

Programmation & Développement : Alexandra Zaïnal
Sur une idée originale de : Baudouin d'Aumeries
Assistance à la programmation : Marc-Olivier Méhu
Soutien technique & logistique : Manuel Goepfert

Contact : metmap@orbifly.com




SOURCES & CREDITS :

   NOAA